Time;durP1;ratioP1;P1;durP2;ratioP2;P2;SDS_P1;SDS_P2;PMS_P1;PMS_P2;Temp;Humidity;BMP_temperature;BMP_pressure;BME280_temperature;BME280_humidity;BME280_pressure;Samples;Min_cycle;Max_cycle;Signal;HPM_P1;HPM_P2
2021/09/12 00:00:20;;;;;;;12.32;11.07;;;;;;;20.57;69.07;100268.22;4898491;28;101175;-79
2021/09/12 00:02:45;;;;;;;13.32;12.05;;;;;;;20.55;69.50;100274.63;4898724;28;96546;-79
2021/09/12 00:05:11;;;;;;;13.80;12.10;;;;;;;20.47;69.62;100271.66;4915782;28;96585;-79
2021/09/12 00:07:37;;;;;;;14.25;12.00;;;;;;;20.49;69.47;100275.06;4914414;28;101220;-79
2021/09/12 00:10:04;;;;;;;13.77;12.20;;;;;;;20.52;69.05;100275.72;4914971;28;97457;-79
2021/09/12 00:12:29;;;;;;;12.50;11.30;;;;;;;20.41;69.32;100274.78;4914214;28;96684;-79
2021/09/12 00:14:55;;;;;;;13.65;12.30;;;;;;;20.37;69.51;100263.53;4898316;28;97046;-79
2021/09/12 00:17:20;;;;;;;13.60;11.73;;;;;;;20.41;69.38;100264.13;4898200;28;101288;-79
2021/09/12 00:19:46;;;;;;;13.38;12.07;;;;;;;20.44;69.03;100270.06;4914163;28;101881;-79
2021/09/12 00:22:11;;;;;;;12.88;11.70;;;;;;;20.30;69.26;100270.25;4901655;28;96576;-79
2021/09/12 00:24:37;;;;;;;12.70;11.50;;;;;;;20.22;69.25;100262.88;4917957;28;97107;-79
2021/09/12 00:27:03;;;;;;;11.98;10.77;;;;;;;20.17;69.34;100270.34;4901633;28;101069;-79
2021/09/12 00:29:28;;;;;;;12.77;11.68;;;;;;;20.18;69.26;100269.38;4901944;28;100792;-79
2021/09/12 00:31:54;;;;;;;13.73;12.48;;;;;;;20.08;69.60;100277.22;4901701;28;96552;-79
2021/09/12 00:34:19;;;;;;;14.23;12.98;;;;;;;20.04;69.70;100274.88;4917776;28;96867;-79
2021/09/12 00:36:45;;;;;;;12.75;11.55;;;;;;;20.05;69.69;100272.13;4916839;28;101334;-79
2021/09/12 00:39:11;;;;;;;12.55;11.35;;;;;;;19.96;69.83;100269.28;4917425;28;100953;-79
2021/09/12 00:41:41;;;;;;;14.98;13.45;;;;;;;19.90;69.79;100276.75;4901547;28;96527;-79
2021/09/12 00:44:11;;;;;;;13.90;12.70;;;;;;;19.82;70.02;100271.16;4901761;28;96806;-79
2021/09/12 00:46:42;;;;;;;13.20;11.85;;;;;;;19.84;70.16;100271.91;4902167;28;97950;-79
2021/09/12 00:49:08;;;;;;;13.33;11.73;;;;;;;19.78;70.18;100256.38;4901384;28;101729;-79
2021/09/12 00:51:34;;;;;;;13.27;11.90;;;;;;;19.79;70.00;100255.41;4933974;28;96612;-79
2021/09/12 00:54:00;;;;;;;16.67;12.27;;;;;;;19.79;69.97;100265.19;4885939;28;96963;-79
2021/09/12 00:56:27;;;;;;;14.35;12.98;;;;;;;19.89;69.45;100272.38;4901162;28;98291;-79
2021/09/12 00:58:54;;;;;;;13.18;11.82;;;;;;;19.82;69.88;100270.31;4932457;28;101053;-79
2021/09/12 01:01:19;;;;;;;14.40;13.10;;;;;;;19.86;69.95;100277.94;4885091;28;96565;-79
2021/09/12 01:03:45;;;;;;;14.85;11.57;;;;;;;19.87;69.55;100262.84;4901309;28;96956;-79
2021/09/12 01:06:10;;;;;;;16.35;11.98;;;;;;;19.85;69.41;100262.09;4901136;28;99410;-79
2021/09/12 01:08:38;;;;;;;13.57;11.98;;;;;;;19.77;69.79;100265.31;4933459;28;97547;-79
2021/09/12 01:11:04;;;;;;;13.43;12.13;;;;;;;19.70;69.84;100265.88;4917517;28;96713;-79
2021/09/12 01:13:29;;;;;;;14.70;13.05;;;;;;;19.66;69.67;100263.44;4901623;28;96844;-79
2021/09/12 01:15:55;;;;;;;17.95;12.35;;;;;;;19.56;70.39;100270.34;4916741;28;101403;-79
2021/09/12 01:18:20;;;;;;;13.63;12.18;;;;;;;19.54;70.13;100264.28;4917267;28;101280;-79
2021/09/12 01:20:46;;;;;;;13.05;11.88;;;;;;;19.59;70.07;100264.81;4917699;28;96627;-79
2021/09/12 01:23:12;;;;;;;16.95;12.70;;;;;;;19.56;70.11;100261.53;4917611;28;96908;-79
2021/09/12 01:25:37;;;;;;;17.33;13.40;;;;;;;19.53;70.24;100261.75;4916580;28;98056;-78
2021/09/12 01:28:06;;;;;;;13.82;12.57;;;;;;;19.56;69.73;100251.72;4900555;28;101402;-79
2021/09/12 01:30:32;;;;;;;16.85;12.82;;;;;;;19.55;70.17;100259.81;4917061;28;96703;-79
2021/09/12 01:32:57;;;;;;;13.57;12.38;;;;;;;19.55;70.15;100263.34;4900614;28;96957;-79
2021/09/12 01:35:23;;;;;;;14.23;12.95;;;;;;;19.41;70.31;100263.47;4916389;28;101118;-79
2021/09/12 01:37:48;;;;;;;13.73;12.30;;;;;;;19.40;70.52;100273.28;4901010;28;97682;-79
2021/09/12 01:40:14;;;;;;;15.52;13.95;;;;;;;19.33;70.29;100257.84;4916924;28;96591;-79
2021/09/12 01:42:40;;;;;;;14.35;12.95;;;;;;;19.30;70.37;100268.72;4917127;28;96842;-79
2021/09/12 01:45:06;;;;;;;13.77;12.43;;;;;;;19.29;70.44;100267.03;4917041;28;97663;-79
2021/09/12 01:47:32;;;;;;;14.93;13.43;;;;;;;19.38;70.01;100269.03;4884418;28;100909;-79
2021/09/12 01:49:57;;;;;;;14.30;12.95;;;;;;;19.36;70.11;100276.25;4900162;28;96633;-79
2021/09/12 01:52:23;;;;;;;14.32;12.82;;;;;;;19.36;70.03;100273.59;4916566;28;96967;-79
2021/09/12 01:54:48;;;;;;;14.00;12.73;;;;;;;19.36;69.80;100270.94;4932648;28;97615;-79
2021/09/12 01:57:14;;;;;;;14.80;13.35;;;;;;;19.28;70.47;100271.47;4900153;28;100951;-79
2021/09/12 01:59:39;;;;;;;15.57;13.23;;;;;;;19.37;69.85;100267.31;4916076;28;96916;-79
2021/09/12 02:02:05;;;;;;;13.77;12.38;;;;;;;19.23;69.95;100261.16;4916599;28;96879;-79
2021/09/12 02:04:30;;;;;;;14.00;12.52;;;;;;;19.20;70.68;100277.34;4900108;28;102378;-79
2021/09/12 02:06:56;;;;;;;14.70;13.20;;;;;;;19.13;70.69;100273.41;4900773;28;97864;-79
2021/09/12 02:09:26;;;;;;;13.43;12.02;;;;;;;19.06;70.75;100272.16;4916819;28;96552;-79
2021/09/12 02:11:52;;;;;;;13.68;12.27;;;;;;;19.06;70.43;100266.81;4916349;28;96765;-79
2021/09/12 02:14:17;;;;;;;16.08;12.93;;;;;;;19.03;70.41;100267.03;4915630;28;101245;-79
2021/09/12 02:16:43;;;;;;;19.67;12.90;;;;;;;19.00;70.50;100270.75;4883819;28;102000;-79
2021/09/12 02:19:08;;;;;;;14.75;13.13;;;;;;;19.05;70.38;100266.91;4900344;28;96580;-79
2021/09/12 02:21:34;;;;;;;16.52;11.65;;;;;;;19.12;70.29;100263.72;4932609;28;96931;-79
2021/09/12 02:23:59;;;;;;;18.42;12.48;;;;;;;19.04;70.75;100267.88;4899763;28;101596;-79
2021/09/12 02:26:25;;;;;;;16.20;12.50;;;;;;;19.02;70.61;100264.47;4915837;28;101117;-79
2021/09/12 02:28:50;;;;;;;15.48;12.10;;;;;;;18.92;70.85;100266.94;4915964;28;96632;-79
2021/09/12 02:31:16;;;;;;;16.60;12.30;;;;;;;18.85;71.23;100263.00;4900414;28;96860;-79
2021/09/12 02:33:41;;;;;;;16.23;13.68;;;;;;;18.85;71.00;100261.22;4915658;28;100624;-79
2021/09/12 02:36:07;;;;;;;13.93;12.60;;;;;;;18.84;71.23;100264.81;4916132;28;97523;-79
2021/09/12 02:38:35;;;;;;;14.50;13.05;;;;;;;18.92;70.84;100264.28;4931906;28;96667;-79
2021/09/12 02:41:01;;;;;;;14.10;12.60;;;;;;;18.80;71.06;100260.66;4915819;28;96826;-79
2021/09/12 02:43:29;;;;;;;20.00;13.52;;;;;;;18.90;70.58;100267.03;4914841;28;101592;-79
2021/09/12 02:45:54;;;;;;;13.77;12.48;;;;;;;18.87;70.65;100266.41;4931472;28;98069;-79
2021/09/12 02:48:20;;;;;;;12.60;11.40;;;;;;;18.87;70.76;100263.75;4899917;28;96557;-79
2021/09/12 02:50:45;;;;;;;15.25;12.43;;;;;;;18.84;70.60;100272.78;4899673;28;96945;-79
2021/09/12 02:53:11;;;;;;;17.55;12.57;;;;;;;18.75;70.99;100276.06;4899468;28;101862;-79
2021/09/12 02:55:36;;;;;;;13.35;12.13;;;;;;;18.69;70.96;100269.34;4915657;28;101845;-79
2021/09/12 02:58:02;;;;;;;14.43;12.80;;;;;;;18.71;71.22;100274.56;4931437;28;96898;-79
2021/09/12 03:00:27;;;;;;;19.02;12.10;;;;;;;18.82;70.61;100268.53;4915787;28;96895;-79
2021/09/12 03:02:53;;;;;;;14.48;12.00;;;;;;;18.77;70.74;100268.84;4914857;28;101343;-79
2021/09/12 03:05:18;;;;;;;15.63;12.13;;;;;;;18.71;70.70;100256.81;4883515;28;101089;-78
2021/09/12 03:07:44;;;;;;;15.40;12.35;;;;;;;18.75;70.94;100270.75;4915507;28;96674;-79
2021/09/12 03:10:09;;;;;;;20.80;12.90;;;;;;;18.76;70.90;100269.78;4932073;28;96871;-79
2021/09/12 03:12:35;;;;;;;13.65;12.43;;;;;;;18.69;70.83;100268.50;4931594;28;98087;-79
2021/09/12 03:15:00;;;;;;;17.63;12.95;;;;;;;18.53;71.03;100266.88;4915031;28;100270;-79
2021/09/12 03:17:26;;;;;;;13.05;11.80;;;;;;;18.63;70.97;100269.75;4915377;28;96557;-79
2021/09/12 03:19:51;;;;;;;14.90;12.48;;;;;;;18.64;71.06;100276.78;4915810;28;96951;-79
2021/09/12 03:22:17;;;;;;;15.18;12.02;;;;;;;18.66;70.78;100272.22;4899129;28;101705;-79
2021/09/12 03:24:42;;;;;;;12.93;11.60;;;;;;;18.72;70.53;100277.09;4915267;28;98120;-79
2021/09/12 03:27:08;;;;;;;16.92;11.98;;;;;;;18.70;70.71;100279.03;4898848;28;96571;-79
2021/09/12 03:29:33;;;;;;;14.05;12.73;;;;;;;18.70;70.40;100283.47;4915269;28;96813;-79
2021/09/12 03:32:01;;;;;;;13.77;12.30;;;;;;;18.71;70.43;100287.84;4898819;28;100636;-79
2021/09/12 03:34:26;;;;;;;12.77;11.60;;;;;;;18.67;70.60;100284.53;4914787;28;100955;-79
2021/09/12 03:36:52;;;;;;;20.83;12.43;;;;;;;18.56;70.68;100284.44;4915369;28;96766;-79
2021/09/12 03:39:17;;;;;;;14.43;12.40;;;;;;;18.48;70.62;100284.94;4899062;28;97011;-79
2021/09/12 03:41:43;;;;;;;14.07;12.75;;;;;;;18.48;71.09;100294.72;4914726;28;101569;-79
2021/09/12 03:44:08;;;;;;;14.88;12.30;;;;;;;18.51;70.80;100282.09;4899418;28;98011;-79
2021/09/12 03:46:34;;;;;;;15.70;11.80;;;;;;;18.32;71.18;100277.16;4915013;28;96667;-79
2021/09/12 03:48:59;;;;;;;13.02;11.80;;;;;;;18.40;70.95;100289.94;4898868;28;97044;-79
2021/09/12 03:51:25;;;;;;;14.25;12.82;;;;;;;18.33;71.20;100286.00;4914137;28;97722;-79
2021/09/12 03:53:50;;;;;;;14.15;12.40;;;;;;;18.27;71.48;100286.41;4914254;28;101507;-79
2021/09/12 03:56:16;;;;;;;16.30;12.45;;;;;;;18.24;71.46;100291.91;4898594;28;96744;-79
2021/09/12 03:58:41;;;;;;;14.55;12.68;;;;;;;18.21;71.38;100285.00;4914652;28;96989;-78
2021/09/12 04:01:07;;;;;;;12.52;11.38;;;;;;;18.38;70.93;100293.63;4914466;28;101214;-79
2021/09/12 04:03:32;;;;;;;14.90;12.35;;;;;;;18.28;71.16;100288.94;4882625;28;101297;-79
2021/09/12 04:05:58;;;;;;;13.63;12.30;;;;;;;18.36;70.67;100280.47;4914590;28;96664;-79
2021/09/12 04:08:23;;;;;;;14.55;12.43;;;;;;;18.35;70.77;100285.88;4916669;28;96886;-79
2021/09/12 04:10:49;;;;;;;13.98;12.52;;;;;;;18.23;71.17;100280.41;4914346;28;101445;-79
2021/09/12 04:13:14;;;;;;;14.43;12.73;;;;;;;18.22;71.18;100284.03;4898243;28;101094;-79
2021/09/12 04:15:40;;;;;;;14.38;12.77;;;;;;;18.35;70.67;100288.53;4914716;28;96616;-79
2021/09/12 04:18:05;;;;;;;14.75;12.88;;;;;;;18.30;70.48;100283.53;4914861;28;96878;-79
2021/09/12 04:20:31;;;;;;;13.30;12.10;;;;;;;18.32;70.33;100286.91;4914544;28;97405;-79
2021/09/12 04:22:56;;;;;;;14.88;12.85;;;;;;;18.23;70.72;100291.03;4897885;28;101573;-79
2021/09/12 04:25:22;;;;;;;14.50;13.15;;;;;;;18.19;70.51;100281.59;4898540;28;96664;-79
2021/09/12 04:27:47;;;;;;;15.05;13.55;;;;;;;18.24;70.80;100291.91;4914453;28;96946;-79
2021/09/12 04:30:14;;;;;;;14.60;13.30;;;;;;;18.13;70.65;100283.81;4914169;28;101817;-79
2021/09/12 04:32:41;;;;;;;16.17;13.68;;;;;;;18.01;71.27;100288.13;4914559;28;101089;-79
2021/09/12 04:35:07;;;;;;;17.45;13.45;;;;;;;18.01;71.28;100299.59;4914473;28;96498;-79
2021/09/12 04:37:33;;;;;;;14.02;12.00;;;;;;;17.91;71.72;100290.50;4898443;28;96884;-79
2021/09/12 04:39:58;;;;;;;13.95;12.68;;;;;;;18.04;71.22;100294.06;4913565;28;97917;-79
2021/09/12 04:42:24;;;;;;;15.23;13.30;;;;;;;18.12;71.19;100304.19;4898107;28;101876;-79
2021/09/12 04:44:50;;;;;;;13.45;12.15;;;;;;;18.15;70.97;100306.66;4914323;28;96598;-79
2021/09/12 04:47:15;;;;;;;16.67;12.48;;;;;;;18.17;70.80;100299.41;4914644;28;96773;-79
2021/09/12 04:49:41;;;;;;;16.70;13.05;;;;;;;18.21;70.89;100298.28;4930452;28;97506;-79
2021/09/12 04:52:06;;;;;;;17.45;13.38;;;;;;;18.19;70.86;100297.53;4913663;28;101526;-79
2021/09/12 04:54:32;;;;;;;15.77;14.10;;;;;;;18.26;70.26;100301.47;4930186;28;96861;-79
2021/09/12 04:56:58;;;;;;;14.52;13.20;;;;;;;18.17;70.44;100304.72;4914672;28;96762;-79
2021/09/12 04:59:23;;;;;;;14.00;12.68;;;;;;;18.19;70.73;100304.66;4929826;28;97581;-79
2021/09/12 05:01:48;;;;;;;15.38;13.32;;;;;;;18.27;70.73;100307.66;4881855;28;100942;-79
2021/09/12 05:04:14;;;;;;;14.80;13.38;;;;;;;18.22;70.71;100294.66;4913665;28;96514;-79
2021/09/12 05:06:40;;;;;;;14.63;13.20;;;;;;;18.31;70.58;100306.47;4914932;28;96831;-79
2021/09/12 05:09:05;;;;;;;14.57;13.07;;;;;;;18.42;70.44;100311.94;4901017;28;101479;-79
2021/09/12 05:11:31;;;;;;;13.55;12.32;;;;;;;18.49;70.35;100291.09;4917125;28;101405;-79
2021/09/12 05:13:56;;;;;;;13.85;12.55;;;;;;;18.72;69.70;100309.00;4917358;28;96617;-79
2021/09/12 05:16:22;;;;;;;13.73;12.40;;;;;;;18.79;69.48;100312.13;4901241;28;96892;-79
2021/09/12 05:18:50;;;;;;;14.35;12.52;;;;;;;19.20;67.95;100306.63;4884778;28;101883;-79
2021/09/12 05:21:16;;;;;;;13.90;12.68;;;;;;;19.78;66.42;100306.09;4917294;28;97407;-79
2021/09/12 05:23:42;;;;;;;15.38;12.90;;;;;;;19.37;68.13;100297.44;4933469;28;96647;-79
2021/09/12 05:26:07;;;;;;;14.40;13.05;;;;;;;19.27;68.81;100311.50;4917219;28;96953;-79
2021/09/12 05:28:34;;;;;;;14.85;13.18;;;;;;;19.67;67.85;100309.56;4916185;28;101376;-79
2021/09/12 05:30:59;;;;;;;16.80;13.13;;;;;;;20.04;67.10;100305.06;4916853;28;98001;-79
2021/09/12 05:33:25;;;;;;;14.35;13.05;;;;;;;20.25;67.04;100305.28;4917017;28;96687;-79
2021/09/12 05:35:50;;;;;;;14.77;13.25;;;;;;;19.76;68.25;100306.22;4900686;28;97003;-78
2021/09/12 05:38:16;;;;;;;14.32;13.00;;;;;;;19.65;68.92;100308.81;4900603;28;101220;-79
2021/09/12 05:40:41;;;;;;;13.52;12.25;;;;;;;19.71;69.05;100304.84;4900598;28;101720;-79
2021/09/12 05:43:07;;;;;;;14.02;12.65;;;;;;;19.73;68.80;100308.25;4916758;28;96577;-79
2021/09/12 05:45:33;;;;;;;15.52;13.93;;;;;;;19.71;68.76;100300.38;4917275;28;96915;-79
2021/09/12 05:47:58;;;;;;;13.68;12.55;;;;;;;19.61;68.94;100299.31;4900234;28;100570;-79
2021/09/12 05:50:24;;;;;;;14.80;12.68;;;;;;;19.62;68.99;100296.53;4916418;28;101741;-78
2021/09/12 05:52:50;;;;;;;14.85;13.32;;;;;;;19.66;69.32;100302.50;4932212;28;96694;-78
2021/09/12 05:55:15;;;;;;;15.65;14.25;;;;;;;19.80;69.27;100304.19;4900368;28;96982;-79
2021/09/12 05:57:41;;;;;;;14.75;13.20;;;;;;;19.82;69.23;100300.44;4915679;28;101614;-79
2021/09/12 06:00:07;;;;;;;14.60;13.30;;;;;;;20.08;68.59;100308.34;4916315;28;101226;-79
2021/09/12 06:02:32;;;;;;;14.60;12.95;;;;;;;20.25;68.20;100309.75;4916558;28;96696;-79
2021/09/12 06:05:02;;;;;;;15.15;13.00;;;;;;;20.30;68.14;100319.13;4900418;28;97006;-79
2021/09/12 06:07:28;;;;;;;15.38;13.88;;;;;;;20.32;67.95;100311.84;4915407;28;101276;-79
2021/09/12 06:09:54;;;;;;;14.70;13.07;;;;;;;20.32;68.23;100322.50;4932749;28;97334;-79
2021/09/12 06:12:19;;;;;;;14.77;13.45;;;;;;;20.41;67.80;100306.78;4900397;28;96605;-79
2021/09/12 06:14:44;;;;;;;15.27;14.00;;;;;;;20.56;67.42;100316.31;4884211;28;96919;-79
2021/09/12 06:17:10;;;;;;;15.88;13.88;;;;;;;20.69;67.54;100325.09;4915234;28;101738;-79
2021/09/12 06:19:37;;;;;;;14.70;13.50;;;;;;;20.64;67.75;100329.91;4914840;28;100852;-79
2021/09/12 06:22:04;;;;;;;15.02;13.52;;;;;;;20.74;67.58;100335.38;4916085;28;96602;-79
2021/09/12 06:24:29;;;;;;;15.18;13.52;;;;;;;20.77;67.48;100337.84;4916396;28;96885;-79
2021/09/12 06:26:55;;;;;;;16.45;13.35;;;;;;;20.69;68.22;100334.91;4883775;28;101676;-80
2021/09/12 06:29:20;;;;;;;16.27;14.77;;;;;;;20.66;68.43;100330.66;4899868;28;100828;-79
2021/09/12 06:31:46;;;;;;;14.05;12.85;;;;;;;20.62;69.00;100339.00;4900083;28;96599;-79
2021/09/12 06:34:12;;;;;;;13.70;12.30;;;;;;;20.65;68.78;100322.75;4900439;28;96939;-79
2021/09/12 06:36:37;;;;;;;14.80;13.35;;;;;;;20.87;68.17;100330.00;4931660;28;101326;-79
2021/09/12 06:39:03;;;;;;;14.48;13.07;;;;;;;20.96;67.90;100330.13;4916051;28;97526;-79
2021/09/12 06:41:28;;;;;;;17.00;13.68;;;;;;;20.97;67.54;100329.16;4899504;28;96616;-79
2021/09/12 06:43:54;;;;;;;14.48;13.23;;;;;;;21.34;66.99;100336.09;4915971;28;97076;-79
2021/09/12 06:46:19;;;;;;;14.55;13.35;;;;;;;21.69;66.16;100333.34;4883477;28;101625;-79
2021/09/12 06:48:46;;;;;;;15.48;14.07;;;;;;;21.72;66.17;100333.09;4915849;28;97506;-79
2021/09/12 06:51:12;;;;;;;15.88;14.23;;;;;;;22.03;65.16;100322.59;4932260;28;96600;-79
2021/09/12 06:53:37;;;;;;;17.10;15.50;;;;;;;22.38;64.33;100333.06;4915687;28;96989;-79
2021/09/12 06:56:04;;;;;;;16.15;14.60;;;;;;;22.85;63.39;100336.25;4931405;28;98078;-79
2021/09/12 06:58:30;;;;;;;15.45;14.02;;;;;;;23.13;62.73;100333.91;4915294;28;101048;-79
2021/09/12 07:00:57;;;;;;;14.75;13.38;;;;;;;24.79;58.10;100327.94;4883720;28;96607;-79
2021/09/12 07:03:23;;;;;;;14.88;13.63;;;;;;;27.21;52.69;100305.91;4915450;28;96908;-79
2021/09/12 07:05:48;;;;;;;14.02;12.82;;;;;;;29.90;46.91;100320.50;4914644;28;101224;-79
2021/09/12 07:08:14;;;;;;;15.38;13.82;;;;;;;30.73;44.86;100322.47;4915081;28;101527;-80
2021/09/12 07:10:39;;;;;;;13.35;12.02;;;;;;;31.72;42.95;100320.41;4915946;28;96604;-80
2021/09/12 07:13:05;;;;;;;12.57;11.50;;;;;;;33.38;40.18;100310.22;4899251;28;97248;-80
2021/09/12 07:15:30;;;;;;;12.68;11.50;;;;;;;34.11;38.90;100306.97;4883080;28;101142;-80
2021/09/12 07:17:56;;;;;;;13.55;11.95;;;;;;;33.10;39.84;100312.97;4898863;28;101623;-81
2021/09/12 07:20:21;;;;;;;13.82;12.52;;;;;;;31.52;42.72;100305.75;4915391;28;96557;-81
2021/09/12 07:22:48;;;;;;;11.25;10.30;;;;;;;29.58;45.41;100319.63;4915579;28;96964;-79
2021/09/12 07:25:13;;;;;;;12.57;11.57;;;;;;;28.34;48.62;100322.66;4914684;28;101594;-79
2021/09/12 07:27:39;;;;;;;13.50;12.25;;;;;;;27.72;50.03;100323.84;4916112;28;97480;-79
2021/09/12 07:30:05;;;;;;;13.65;12.38;;;;;;;27.62;49.91;100335.75;4914485;28;96647;-79
2021/09/12 07:32:31;;;;;;;13.07;11.95;;;;;;;28.57;48.13;100326.41;4931393;28;96825;-79
2021/09/12 07:34:56;;;;;;;12.93;11.82;;;;;;;29.75;45.26;100315.84;4914857;28;97747;-80
2021/09/12 07:37:22;;;;;;;13.95;12.80;;;;;;;32.63;40.45;100318.03;4914757;28;100915;-80
2021/09/12 07:39:47;;;;;;;14.20;12.95;;;;;;;34.39;37.77;100313.09;4899074;28;96540;-81
2021/09/12 07:42:14;;;;;;;13.05;11.85;;;;;;;35.57;36.29;100320.53;4899282;28;96616;-77
2021/09/12 07:44:39;;;;;;;13.23;12.02;;;;;;;36.32;34.81;100322.69;4914900;28;101765;-76
2021/09/12 07:47:05;;;;;;;13.25;12.27;;;;;;;36.45;34.29;100322.56;4914925;28;101511;-77
2021/09/12 07:49:30;;;;;;;12.52;11.32;;;;;;;35.74;35.04;100329.91;4915205;28;96629;-77
2021/09/12 07:51:56;;;;;;;12.13;11.15;;;;;;;35.03;35.90;100321.69;4914739;28;96932;-77
2021/09/12 07:54:21;;;;;;;12.05;10.88;;;;;;;33.70;37.58;100329.66;4914027;28;101510;-78
2021/09/12 07:56:47;;;;;;;13.77;12.45;;;;;;;33.96;38.31;100327.00;4914300;28;101606;-77
2021/09/12 07:59:12;;;;;;;12.50;11.27;;;;;;;34.70;37.06;100325.28;4898252;28;96637;-77
2021/09/12 08:01:38;;;;;;;13.32;12.20;;;;;;;35.41;35.64;100323.75;4914759;28;96817;-77
2021/09/12 08:04:03;;;;;;;13.68;12.52;;;;;;;35.93;34.67;100325.44;4882636;28;101602;-80
2021/09/12 08:06:30;;;;;;;11.13;10.13;;;;;;;36.49;33.83;100321.91;4930798;28;97418;-79
2021/09/12 08:08:56;;;;;;;12.32;11.25;;;;;;;37.17;33.23;100329.34;4898878;28;96577;-79
2021/09/12 08:11:21;;;;;;;12.27;11.38;;;;;;;37.88;32.19;100310.63;4915064;28;96937;-80
2021/09/12 08:13:47;;;;;;;12.98;11.55;;;;;;;37.86;32.26;100320.13;4898415;28;101573;-79
2021/09/12 08:16:13;;;;;;;13.35;11.68;;;;;;;37.18;32.93;100324.72;4930786;28;98454;-80
2021/09/12 08:18:38;;;;;;;13.60;12.43;;;;;;;38.45;31.73;100315.72;4898239;28;96604;-79
2021/09/12 08:21:04;;;;;;;11.55;10.55;;;;;;;39.21;30.09;100315.88;4914498;28;96983;-80
2021/09/12 08:23:29;;;;;;;12.73;11.52;;;;;;;39.64;29.89;100318.16;4914123;28;101960;-80
2021/09/12 08:25:55;;;;;;;11.30;10.23;;;;;;;37.92;31.49;100321.94;4930162;28;101101;-79
2021/09/12 08:28:23;;;;;;;10.93;10.13;;;;;;;36.39;33.54;100318.88;4882611;28;96633;-80
2021/09/12 08:30:49;;;;;;;10.23;9.32;;;;;;;35.01;35.19;100319.19;4915016;28;96839;-84
2021/09/12 08:33:15;;;;;;;11.55;10.75;;;;;;;35.69;34.50;100316.06;4898676;28;97903;-79
2021/09/12 08:35:42;;;;;;;11.98;11.15;;;;;;;36.39;33.77;100323.47;4930610;28;102077;-80
2021/09/12 08:38:08;;;;;;;12.48;11.57;;;;;;;37.19;33.02;100329.13;4898012;28;96533;-80
2021/09/12 08:40:33;;;;;;;11.18;10.27;;;;;;;38.67;30.24;100310.50;4914302;28;96890;-80
2021/09/12 08:43:00;;;;;;;11.18;10.27;;;;;;;39.56;29.36;100324.91;4915935;28;102070;-79
2021/09/12 08:45:26;;;;;;;10.52;9.57;;;;;;;39.54;29.42;100307.00;4885666;28;101742;-79
2021/09/12 08:47:52;;;;;;;9.43;8.73;;;;;;;39.66;28.64;100318.78;4933850;28;96740;-79
2021/09/12 08:50:18;;;;;;;9.25;8.65;;;;;;;38.22;30.06;100316.47;4933944;28;97019;-82
2021/09/12 08:52:44;;;;;;;10.57;9.77;;;;;;;39.33;29.64;100311.22;4901246;28;101705;-83
2021/09/12 08:55:11;;;;;;;10.43;9.63;;;;;;;38.07;30.73;100311.41;4885123;28;101712;-79
2021/09/12 08:57:46;;;;;;;8.88;8.27;;;;;;;39.61;29.11;100307.69;4933150;28;96861;-81
2021/09/12 09:00:23;;;;;;;9.40;8.60;;;;;;;36.92;32.29;100312.13;4918281;28;96523;-80
2021/09/12 09:02:49;;;;;;;10.55;9.45;;;;;;;37.93;31.33;100310.72;4933350;28;101640;-81
2021/09/12 09:05:27;;;;;;;9.38;8.68;;;;;;;35.45;34.27;100306.72;4916871;28;98462;-78
2021/09/12 09:08:05;;;;;;;9.15;8.45;;;;;;;36.33;33.37;100302.50;4933192;28;97060;-78
2021/09/12 09:10:45;;;;;;;9.20;8.50;;;;;;;35.81;34.30;100313.50;4933401;28;96853;-79
2021/09/12 09:13:35;;;;;;;10.40;9.63;;;;;;;35.13;34.61;100309.31;4917523;28;98047;-79
2021/09/12 09:16:06;;;;;;;10.23;9.35;;;;;;;34.90;35.86;100312.47;4901253;28;97660;-79
2021/09/12 09:18:33;;;;;;;9.20;8.40;;;;;;;35.06;36.00;100310.41;4917289;28;96590;-80
2021/09/12 09:21:00;;;;;;;9.80;9.07;;;;;;;35.02;35.81;100303.66;4932997;28;96949;-79
2021/09/12 09:23:25;;;;;;;8.45;7.85;;;;;;;34.41;36.22;100308.28;4916834;28;97587;-79
2021/09/12 09:25:52;;;;;;;9.10;8.32;;;;;;;36.38;33.28;100310.88;4900913;28;101829;-81
2021/09/12 09:28:19;;;;;;;9.43;8.68;;;;;;;35.27;34.89;100310.13;4917186;28;97284;-79
2021/09/12 09:31:08;;;;;;;8.98;8.27;;;;;;;34.10;36.36;100308.03;4901292;28;96926;-79
2021/09/12 09:33:33;;;;;;;9.57;8.80;;;;;;;32.73;38.32;100311.44;4915843;28;101309;-79
2021/09/12 09:36:07;;;;;;;8.98;8.25;;;;;;;33.00;37.65;100305.19;4884687;28;103248;-77
2021/09/12 09:38:39;;;;;;;8.35;7.75;;;;;;;32.99;37.08;100314.38;4901001;28;96608;-77
2021/09/12 09:41:09;;;;;;;7.90;7.35;;;;;;;34.04;34.96;100306.97;4914436;28;97127;-77
2021/09/12 09:43:52;;;;;;;7.40;6.85;;;;;;;34.25;34.13;100311.41;4916412;28;100987;-78
2021/09/12 09:46:31;;;;;;;7.80;6.45;;;;;;;34.01;33.68;100291.84;4916105;28;101321;-77
2021/09/12 09:49:19;;;;;;;6.95;6.47;;;;;;;32.51;37.01;100305.19;4916415;28;96537;-77
2021/09/12 09:52:01;;;;;;;7.18;6.68;;;;;;;31.41;38.68;100303.50;4918066;28;96934;-77
2021/09/12 09:54:29;;;;;;;6.90;6.45;;;;;;;32.87;36.80;100292.31;4917687;28;98544;-78
2021/09/12 09:56:55;;;;;;;7.32;6.85;;;;;;;33.37;36.22;100289.50;4932172;28;97299;-77
2021/09/12 09:59:23;;;;;;;8.40;7.80;;;;;;;31.84;38.68;100290.06;4915458;28;96934;-77
2021/09/12 10:01:50;;;;;;;8.65;7.95;;;;;;;32.59;37.62;100283.31;4932450;28;96953;-76
2021/09/12 10:04:26;;;;;;;7.85;7.10;;;;;;;33.44;36.63;100284.94;4931955;28;100732;-80
2021/09/12 10:06:52;;;;;;;8.20;7.60;;;;;;;31.82;41.42;100284.81;4915955;28;99653;-77
2021/09/12 10:09:18;;;;;;;7.50;6.80;;;;;;;31.61;40.91;100295.63;4932617;28;96544;-76
2021/09/12 10:11:49;;;;;;;7.00;6.40;;;;;;;32.14;39.70;100283.50;4932589;28;96938;-76
2021/09/12 10:14:21;;;;;;;7.90;7.30;;;;;;;32.22;38.62;100279.84;4916303;28;97625;-76
2021/09/12 10:16:47;;;;;;;7.32;6.72;;;;;;;32.27;38.14;100285.53;4884172;28;101981;-76
2021/09/12 10:19:39;;;;;;;7.55;6.85;;;;;;;31.12;39.52;100275.34;4915838;28;96764;-76
2021/09/12 10:22:13;;;;;;;6.82;6.32;;;;;;;30.20;40.92;100279.03;4931583;28;96852;-76
2021/09/12 10:25:01;;;;;;;6.43;5.82;;;;;;;30.06;41.20;100285.22;4882901;28;101476;-76
2021/09/12 10:27:46;;;;;;;7.68;7.07;;;;;;;29.54;42.05;100283.97;4899640;28;101339;-85
2021/09/12 10:30:28;;;;;;;7.82;7.07;;;;;;;29.92;41.28;100278.72;4916182;28;96638;-84
2021/09/12 10:33:06;;;;;;;7.38;6.75;;;;;;;29.92;42.01;100278.72;4932160;28;96994;-85
2021/09/12 10:35:48;;;;;;;6.75;6.25;;;;;;;30.48;41.97;100281.19;4917158;28;98536;-85
2021/09/12 10:38:35;;;;;;;6.60;6.00;;;;;;;29.78;42.92;100277.63;4931443;28;100023;-86
2021/09/12 10:41:01;;;;;;;7.32;6.72;;;;;;;29.82;42.19;100280.84;4892924;28;96914;-85
2021/09/12 10:43:30;;;;;;;7.32;6.72;;;;;;;30.43;42.02;100279.06;4917833;28;96834;-84
2021/09/12 10:46:02;;;;;;;7.90;7.20;;;;;;;30.07;41.91;100280.66;4898688;28;100381;-81
2021/09/12 10:48:29;;;;;;;9.55;7.38;;;;;;;29.73;42.52;100273.75;4931707;28;101579;-85
2021/09/12 10:50:55;;;;;;;7.30;6.60;;;;;;;30.13;41.91;100275.34;4899556;28;96542;-87
2021/09/12 10:53:43;;;;;;;7.45;6.85;;;;;;;29.57;42.65;100269.25;4916615;28;96786;-86
2021/09/12 10:56:09;;;;;;;6.30;5.80;;;;;;;29.02;43.29;100276.41;4932217;28;101908;-88
2021/09/12 10:58:35;;;;;;;6.90;6.30;;;;;;;29.23;43.22;100269.56;4899508;28;101627;-86
2021/09/12 11:01:01;;;;;;;7.57;6.68;;;;;;;29.72;42.51;100255.84;4900282;28;96583;-85
2021/09/12 11:03:28;;;;;;;7.18;6.47;;;;;;;29.55;42.76;100271.28;4932583;28;96981;-86
2021/09/12 11:05:54;;;;;;;7.57;6.97;;;;;;;29.30;43.29;100266.00;4914853;28;100814;-86
2021/09/12 11:08:19;;;;;;;7.00;6.50;;;;;;;28.95;43.60;100274.53;4884647;28;100224;-86